createdAt,value
2022-07-26T00:02:47.769Z,7.80
2022-07-26T00:06:50.726Z,7.70
2022-07-26T00:10:53.632Z,8.80
2022-07-26T00:14:55.943Z,7.03
2022-07-26T00:18:57.873Z,8.17
2022-07-26T00:23:00.091Z,8.60
2022-07-26T00:27:02.665Z,8.27
2022-07-26T00:31:05.876Z,9.60
2022-07-26T00:35:10.104Z,5.80
2022-07-26T00:39:13.119Z,6.63
2022-07-26T00:43:15.147Z,6.23
2022-07-26T00:47:17.343Z,7.30
2022-07-26T00:51:21.257Z,7.23
2022-07-26T00:55:24.411Z,6.57
2022-07-26T00:59:26.893Z,6.40
2022-07-26T01:03:29.134Z,5.80
2022-07-26T01:07:32.927Z,6.03
2022-07-26T01:11:35.343Z,4.73
2022-07-26T01:15:37.478Z,5.50
2022-07-26T01:19:40.465Z,5.63
2022-07-26T01:23:45.151Z,4.97
2022-07-26T01:27:49.118Z,4.60
2022-07-26T01:31:56.398Z,4.90
2022-07-26T01:36:00.240Z,4.90
2022-07-26T01:40:03.184Z,4.83
2022-07-26T01:44:10.474Z,4.03
2022-07-26T01:48:12.747Z,4.63
2022-07-26T01:52:14.827Z,4.13
2022-07-26T01:56:17.157Z,4.43
2022-07-26T02:00:20.008Z,3.83
2022-07-26T02:04:42.257Z,3.97
2022-07-26T02:08:44.664Z,3.90
2022-07-26T02:12:47.287Z,3.67
2022-07-26T02:16:49.423Z,4.23
2022-07-26T02:20:52.368Z,3.17
2022-07-26T02:24:54.717Z,3.10
2022-07-26T02:28:57.748Z,3.20
2022-07-26T02:32:59.798Z,2.47
2022-07-26T02:37:04.440Z,2.30
2022-07-26T02:41:07.467Z,2.40
2022-07-26T02:45:15.370Z,2.03
2022-07-26T02:49:18.353Z,2.10
2022-07-26T02:53:21.474Z,2.23
2022-07-26T02:57:28.448Z,2.23
2022-07-26T03:01:47.523Z,2.43
2022-07-26T03:05:49.811Z,1.87
2022-07-26T03:09:53.828Z,1.70
2022-07-26T03:13:57.263Z,2.33
2022-07-26T03:18:00.776Z,2.20
2022-07-26T03:22:04.763Z,2.03
2022-07-26T03:26:09.452Z,2.27
2022-07-26T03:30:15.222Z,2.07
2022-07-26T03:34:18.508Z,2.10
2022-07-26T03:38:20.864Z,1.83
2022-07-26T03:42:24.382Z,2.03
2022-07-26T03:46:28.833Z,2.50
2022-07-26T03:50:30.999Z,2.10
2022-07-26T03:54:36.029Z,2.57
2022-07-26T03:58:40.501Z,2.50
2022-07-26T04:02:43.279Z,2.70
2022-07-26T04:06:47.409Z,1.50
2022-07-26T04:10:52.842Z,2.00
2022-07-26T04:14:55.423Z,1.80
2022-07-26T04:18:57.878Z,1.90
2022-07-26T04:23:00.830Z,2.50
2022-07-26T04:27:04.147Z,2.20
2022-07-26T04:31:07.051Z,1.97
2022-07-26T04:35:09.591Z,1.90
2022-07-26T04:39:11.752Z,1.80
2022-07-26T04:43:15.856Z,1.90
2022-07-26T04:47:19.589Z,2.20
2022-07-26T04:51:21.669Z,1.83
2022-07-26T04:55:24.302Z,1.70
2022-07-26T04:59:26.618Z,2.10
2022-07-26T05:03:28.972Z,1.50
2022-07-26T05:07:50.942Z,2.10
2022-07-26T05:11:53.499Z,2.00
2022-07-26T05:15:56.172Z,1.67
2022-07-26T05:20:02.971Z,1.93
2022-07-26T05:24:07.952Z,1.97
2022-07-26T05:28:10.914Z,2.40
2022-07-26T05:32:13.373Z,2.17
2022-07-26T05:36:15.777Z,1.93
2022-07-26T05:40:18.371Z,2.20
2022-07-26T05:44:20.279Z,2.20
2022-07-26T05:48:24.821Z,2.53
2022-07-26T05:52:29.146Z,2.00
2022-07-26T05:56:31.514Z,2.37
2022-07-26T06:00:34.070Z,2.00
2022-07-26T06:04:36.536Z,2.10
2022-07-26T06:08:38.600Z,2.37
2022-07-26T06:12:41.143Z,2.20
2022-07-26T06:16:43.166Z,2.63
2022-07-26T06:20:47.423Z,2.23
2022-07-26T06:24:49.376Z,2.03
2022-07-26T06:28:52.253Z,1.77
2022-07-26T06:32:54.858Z,2.10
2022-07-26T06:36:58.376Z,1.70
2022-07-26T06:41:00.534Z,2.13
2022-07-26T06:45:05.008Z,2.10
2022-07-26T06:49:07.870Z,2.23
2022-07-26T06:53:10.393Z,2.00
2022-07-26T06:57:12.869Z,2.53
2022-07-26T07:01:58.580Z,2.13
2022-07-26T07:05:38.451Z,1.93
2022-07-26T07:09:40.787Z,2.20
2022-07-26T07:13:44.771Z,1.93
2022-07-26T07:17:46.831Z,2.30
2022-07-26T07:22:04.783Z,2.60
2022-07-26T07:26:10.277Z,2.30
2022-07-26T07:30:13.113Z,2.80
2022-07-26T07:34:16.091Z,2.20
2022-07-26T07:38:18.693Z,2.77
2022-07-26T07:42:21.130Z,2.40
2022-07-26T07:46:23.254Z,2.93
2022-07-26T07:50:27.273Z,2.10
2022-07-26T07:54:31.772Z,2.73
2022-07-26T07:58:34.664Z,2.60
2022-07-26T08:02:36.719Z,2.60
2022-07-26T08:06:40.834Z,2.90
2022-07-26T08:10:43.753Z,3.10
2022-07-26T08:14:54.091Z,2.63
2022-07-26T08:18:57.714Z,2.77
2022-07-26T08:23:00.759Z,2.97
2022-07-26T08:27:02.721Z,2.67
2022-07-26T08:31:04.787Z,2.60
2022-07-26T08:35:19.636Z,2.10
2022-07-26T08:39:22.341Z,2.63
2022-07-26T08:43:25.063Z,3.10
2022-07-26T08:47:36.238Z,2.97
2022-07-26T08:51:44.216Z,2.63
2022-07-26T08:56:06.099Z,2.87
2022-07-26T09:00:34.976Z,3.37
2022-07-26T09:04:44.750Z,3.17
2022-07-26T09:08:50.380Z,2.53
2022-07-26T09:12:57.736Z,2.30
2022-07-26T09:17:00.690Z,2.70
2022-07-26T09:21:02.756Z,2.80
2022-07-26T09:25:20.689Z,2.93
2022-07-26T09:29:23.141Z,2.43
2022-07-26T09:33:26.594Z,2.60
2022-07-26T09:37:36.272Z,2.83
2022-07-26T09:41:38.530Z,2.97
2022-07-26T09:45:40.426Z,2.57
2022-07-26T09:49:44.751Z,3.40
2022-07-26T09:53:48.169Z,3.60
2022-07-26T09:57:51.977Z,3.37
2022-07-26T10:01:57.551Z,3.00
2022-07-26T10:06:00.578Z,3.00
2022-07-26T10:10:09.106Z,3.13
2022-07-26T10:14:33.098Z,3.10
2022-07-26T10:18:38.998Z,3.10
2022-07-26T10:22:46.306Z,2.57
2022-07-26T10:26:48.439Z,2.33
2022-07-26T10:30:50.675Z,3.30
2022-07-26T10:34:52.974Z,3.00
2022-07-26T10:39:04.294Z,2.60
2022-07-26T10:43:39.393Z,3.03
2022-07-26T10:48:14.235Z,2.97
2022-07-26T10:52:23.139Z,3.03
2022-07-26T10:56:28.683Z,3.27
2022-07-26T11:00:34.779Z,3.07
2022-07-26T11:04:37.671Z,3.13
2022-07-26T11:08:44.573Z,1.97
2022-07-26T11:13:00.319Z,1.80
2022-07-26T11:17:02.213Z,1.80
2022-07-26T11:21:13.581Z,1.70
2022-07-26T11:25:21.521Z,2.43
2022-07-26T11:29:41.787Z,2.20
2022-07-26T11:33:51.716Z,2.87
2022-07-26T11:38:07.885Z,3.10
2022-07-26T11:42:16.280Z,3.30
2022-07-26T11:46:19.682Z,3.37
2022-07-26T11:50:23.287Z,3.23
2022-07-26T11:54:34.300Z,3.60
2022-07-26T11:58:36.529Z,3.50
2022-07-26T12:02:38.981Z,3.70
2022-07-26T12:06:41.084Z,2.90
2022-07-26T12:10:43.186Z,3.17
2022-07-26T12:14:59.910Z,3.20
2022-07-26T12:19:02.355Z,2.80
2022-07-26T12:23:06.190Z,3.33
2022-07-26T12:27:11.415Z,2.57
2022-07-26T12:31:31.998Z,3.40
2022-07-26T12:35:35.993Z,4.70
2022-07-26T12:39:38.688Z,4.30
2022-07-26T12:43:41.512Z,5.10
2022-07-26T12:47:46.499Z,4.17
2022-07-26T12:51:48.612Z,3.57
2022-07-26T12:55:50.670Z,3.80
2022-07-26T12:59:52.738Z,3.27
2022-07-26T13:03:55.836Z,3.80
2022-07-26T13:07:57.985Z,2.93
2022-07-26T13:12:02.153Z,3.23
2022-07-26T13:16:09.579Z,3.03
2022-07-26T13:20:13.764Z,2.80
2022-07-26T13:24:18.617Z,2.67
2022-07-26T13:28:22.286Z,4.60
2022-07-26T13:32:24.408Z,3.60
2022-07-26T13:36:26.626Z,4.17
2022-07-26T13:40:31.627Z,3.67
2022-07-26T13:44:34.584Z,3.80
2022-07-26T13:48:36.734Z,3.57
2022-07-26T13:52:39.756Z,3.60
2022-07-26T13:56:41.832Z,3.30
2022-07-26T14:00:44.126Z,2.93
2022-07-26T14:04:46.456Z,3.87
2022-07-26T14:08:48.373Z,3.03
2022-07-26T14:12:51.036Z,3.57
2022-07-26T14:16:53.664Z,3.90
2022-07-26T14:20:56.301Z,3.93
2022-07-26T14:24:58.503Z,4.00
2022-07-26T14:29:01.158Z,3.93
2022-07-26T14:33:03.235Z,4.53
2022-07-26T14:37:08.266Z,3.83
2022-07-26T14:41:11.505Z,4.10
2022-07-26T14:45:14.215Z,3.80
2022-07-26T14:49:16.751Z,3.77
2022-07-26T14:53:19.306Z,3.70
2022-07-26T14:57:21.332Z,2.80
2022-07-26T15:01:23.879Z,2.90
2022-07-26T15:05:28.022Z,3.03
2022-07-26T15:09:29.885Z,2.90
2022-07-26T15:13:32.399Z,3.00
2022-07-26T15:17:34.942Z,2.83
2022-07-26T15:21:37.060Z,2.90
2022-07-26T15:25:39.089Z,2.50
2022-07-26T15:29:41.135Z,2.93
2022-07-26T15:33:43.593Z,2.50
2022-07-26T15:37:45.514Z,2.20
2022-07-26T15:41:48.665Z,2.27
2022-07-26T15:45:51.912Z,2.00
2022-07-26T15:49:55.768Z,2.03
2022-07-26T15:53:58.292Z,2.20
2022-07-26T15:58:00.392Z,2.27
2022-07-26T16:02:04.374Z,3.80
2022-07-26T16:06:06.516Z,3.13
2022-07-26T16:10:10.911Z,3.17
2022-07-26T16:14:12.956Z,3.20
2022-07-26T16:18:15.599Z,2.93
2022-07-26T16:22:17.872Z,3.10
2022-07-26T16:26:20.278Z,3.40
2022-07-26T16:30:23.343Z,3.50
2022-07-26T16:34:25.319Z,3.93
2022-07-26T16:38:27.208Z,3.80
2022-07-26T16:42:29.338Z,4.53
2022-07-26T16:46:31.432Z,3.27
2022-07-26T16:50:33.879Z,3.43
2022-07-26T16:54:36.713Z,3.40
2022-07-26T16:58:38.584Z,3.93
2022-07-26T17:02:40.950Z,4.03
2022-07-26T17:07:01.773Z,3.60
2022-07-26T17:11:06.796Z,3.50
2022-07-26T17:15:10.582Z,3.50
2022-07-26T17:19:13.355Z,3.60
2022-07-26T17:23:15.777Z,3.97
2022-07-26T17:27:17.968Z,3.77
2022-07-26T17:31:19.921Z,3.87
2022-07-26T17:35:21.830Z,3.47
2022-07-26T17:39:23.740Z,3.40
2022-07-26T17:43:45.908Z,4.07
2022-07-26T17:47:48.218Z,3.63
2022-07-26T17:51:51.362Z,3.93
2022-07-26T17:55:54.498Z,3.60
2022-07-26T17:59:56.591Z,3.73
2022-07-26T18:03:58.715Z,4.57
2022-07-26T18:08:01.682Z,4.07
2022-07-26T18:12:03.869Z,4.63
2022-07-26T18:16:08.891Z,4.73
2022-07-26T18:20:11.684Z,4.43
2022-07-26T18:24:17.675Z,3.90
2022-07-26T18:28:20.398Z,3.80
2022-07-26T18:32:23.286Z,4.03
2022-07-26T18:36:25.901Z,4.20
2022-07-26T18:40:30.225Z,3.50
2022-07-26T18:44:32.242Z,3.33
2022-07-26T18:48:34.947Z,3.33
2022-07-26T18:52:37.330Z,3.20
2022-07-26T18:56:40.004Z,3.33
2022-07-26T19:00:42.751Z,3.30
2022-07-26T19:04:45.125Z,3.07
2022-07-26T19:08:47.648Z,3.03
2022-07-26T19:12:51.976Z,3.43
2022-07-26T19:16:53.955Z,3.30
2022-07-26T19:20:56.724Z,3.30
2022-07-26T19:24:59.157Z,3.67
2022-07-26T19:29:01.080Z,3.93
2022-07-26T19:33:03.682Z,4.37
2022-07-26T19:37:06.235Z,3.03
2022-07-26T19:41:12.702Z,3.63
2022-07-26T19:45:17.736Z,4.37
2022-07-26T19:49:20.519Z,3.67
2022-07-26T19:53:22.917Z,3.63
2022-07-26T19:57:57.306Z,3.80
2022-07-26T20:02:09.455Z,3.83
2022-07-26T20:06:13.898Z,3.77
2022-07-26T20:10:17.975Z,3.93
2022-07-26T20:14:20.647Z,4.07
2022-07-26T20:18:25.661Z,4.00
2022-07-26T20:22:28.240Z,3.50
2022-07-26T20:26:30.418Z,3.70
2022-07-26T20:30:33.656Z,3.90
2022-07-26T20:34:35.803Z,4.40
2022-07-26T20:38:37.898Z,3.80
2022-07-26T20:42:42.074Z,4.50
2022-07-26T20:46:46.892Z,4.13
2022-07-26T20:50:48.873Z,3.60
2022-07-26T20:54:52.839Z,3.93
2022-07-26T20:58:55.877Z,4.23
2022-07-26T21:02:59.375Z,4.23
2022-07-26T21:07:01.919Z,4.57
2022-07-26T21:11:04.139Z,4.20
2022-07-26T21:15:07.582Z,4.77
2022-07-26T21:19:09.967Z,4.13
2022-07-26T21:23:17.198Z,5.03
2022-07-26T21:27:19.891Z,4.30
2022-07-26T21:31:21.820Z,3.93
2022-07-26T21:35:24.223Z,4.57
2022-07-26T21:39:26.609Z,4.47
2022-07-26T21:43:29.051Z,3.63
2022-07-26T21:47:31.381Z,4.03
2022-07-26T21:51:35.430Z,3.77
2022-07-26T21:55:37.799Z,4.13
2022-07-26T21:59:40.208Z,3.67
2022-07-26T22:03:42.940Z,3.77
2022-07-26T22:07:45.228Z,4.13
2022-07-26T22:11:47.593Z,3.03
2022-07-26T22:15:50.214Z,3.80
2022-07-26T22:19:52.428Z,4.07
2022-07-26T22:23:54.755Z,3.20
2022-07-26T22:27:57.108Z,3.17
2022-07-26T22:31:59.304Z,2.47
2022-07-26T22:36:01.460Z,2.80
2022-07-26T22:40:03.871Z,2.37
2022-07-26T22:44:05.963Z,2.53
2022-07-26T22:48:11.727Z,2.23
2022-07-26T22:52:13.864Z,2.37
2022-07-26T22:56:19.456Z,2.43
2022-07-26T23:00:22.255Z,2.20
2022-07-26T23:04:24.207Z,2.23
2022-07-26T23:08:46.549Z,2.17
2022-07-26T23:12:49.423Z,2.03
2022-07-26T23:16:51.365Z,2.20
2022-07-26T23:20:53.499Z,1.97
2022-07-26T23:24:55.834Z,2.10
2022-07-26T23:28:58.472Z,1.50
2022-07-26T23:33:00.610Z,1.90
2022-07-26T23:37:03.338Z,2.10
2022-07-26T23:41:05.566Z,1.80
2022-07-26T23:45:08.369Z,1.90
2022-07-26T23:49:11.430Z,1.60
2022-07-26T23:53:14.049Z,1.60
2022-07-26T23:57:16.654Z,1.67
